Time;durP1;ratioP1;P1;durP2;ratioP2;P2;SDS_P1;SDS_P2;PMS_P1;PMS_P2;Temp;Humidity;BMP_temperature;BMP_pressure;BME280_temperature;BME280_humidity;BME280_pressure;Samples;Min_cycle;Max_cycle;Signal;HPM_P1;HPM_P2
2024/02/12 00:00:20;;;;;;;41.33;19.30;;;7.60;99.90;;;;;;5073436;28;20080;-75
2024/02/12 00:02:46;;;;;;;46.60;17.90;;;7.60;99.90;;;;;;5075023;28;20450;-77
2024/02/12 00:05:12;;;;;;;45.92;19.33;;;7.70;99.90;;;;;;5073437;28;20037;-77
2024/02/12 00:07:39;;;;;;;44.35;18.58;;;7.60;99.90;;;;;;5073496;28;20033;-76
2024/02/12 00:10:10;;;;;;;41.88;18.65;;;7.60;99.90;;;;;;5056451;28;20040;-76
2024/02/12 00:12:39;;;;;;;41.58;18.00;;;7.60;99.90;;;;;;5056725;28;20028;-76
2024/02/12 00:15:11;;;;;;;42.45;19.70;;;7.80;99.90;;;;;;5073272;28;20502;-76
2024/02/12 00:17:41;;;;;;;47.72;20.33;;;7.90;99.90;;;;;;5073430;28;20048;-77
2024/02/12 00:20:11;;;;;;;46.05;18.30;;;7.80;99.90;;;;;;5073031;28;20492;-76
2024/02/12 00:22:40;;;;;;;49.47;19.00;;;7.90;99.90;;;;;;5074372;28;20078;-76
2024/02/12 00:25:07;;;;;;;43.53;19.40;;;7.70;99.90;;;;;;5056540;28;20039;-76
2024/02/12 00:27:34;;;;;;;51.45;18.88;;;7.90;99.90;;;;;;5074473;28;20036;-76
2024/02/12 00:30:00;;;;;;;48.55;20.77;;;7.70;99.90;;;;;;5076145;28;20116;-76
2024/02/12 00:32:29;;;;;;;44.67;19.25;;;7.70;99.90;;;;;;5074700;28;20251;-76
2024/02/12 00:34:56;;;;;;;49.90;20.38;;;7.70;99.90;;;;;;5057746;28;20048;-76
2024/02/12 00:37:25;;;;;;;53.30;20.50;;;7.70;99.90;;;;;;5057347;28;20071;-76
2024/02/12 00:39:53;;;;;;;45.83;20.75;;;7.80;99.90;;;;;;5074364;28;20047;-75
2024/02/12 00:42:19;;;;;;;46.40;21.00;;;7.70;99.90;;;;;;5057442;28;20040;-76
2024/02/12 00:44:45;;;;;;;42.65;20.65;;;7.90;99.90;;;;;;5074530;28;20439;-76
2024/02/12 00:47:11;;;;;;;52.33;19.67;;;7.80;99.90;;;;;;5057379;28;20041;-76
2024/02/12 00:49:39;;;;;;;47.38;19.95;;;7.80;99.90;;;;;;5074563;28;20036;-76
2024/02/12 00:52:07;;;;;;;48.17;21.55;;;7.90;99.90;;;;;;5075057;28;20396;-76
2024/02/12 00:54:35;;;;;;;42.95;21.27;;;7.70;99.90;;;;;;5075299;28;20036;-76
2024/02/12 00:57:01;;;;;;;51.53;20.40;;;7.70;99.90;;;;;;5056061;28;20047;-76
2024/02/12 00:59:26;;;;;;;48.00;20.27;;;7.80;99.90;;;;;;5072865;28;20032;-77
2024/02/12 01:01:53;;;;;;;42.13;19.98;;;7.70;99.90;;;;;;5073805;28;20047;-76
2024/02/12 01:04:19;;;;;;;46.45;19.27;;;7.80;99.90;;;;;;5072356;28;20044;-75
2024/02/12 01:06:45;;;;;;;40.72;19.02;;;7.80;99.90;;;;;;5055833;28;20036;-77
2024/02/12 01:09:13;;;;;;;43.00;18.50;;;7.70;99.90;;;;;;5055727;28;20039;-76
2024/02/12 01:11:40;;;;;;;50.13;19.88;;;7.80;99.90;;;;;;5055055;28;20037;-76
2024/02/12 01:14:06;;;;;;;40.45;19.10;;;7.90;99.90;;;;;;5055517;28;20075;-77
2024/02/12 01:16:32;;;;;;;41.97;19.20;;;7.80;99.90;;;;;;5072433;28;20503;-76
2024/02/12 01:18:59;;;;;;;45.38;18.83;;;7.80;99.90;;;;;;5072505;28;20043;-76
2024/02/12 01:21:25;;;;;;;45.00;18.52;;;7.60;99.90;;;;;;5072011;28;20533;-76
2024/02/12 01:23:51;;;;;;;38.90;19.02;;;7.80;99.90;;;;;;5052509;28;20036;-76
2024/02/12 01:26:18;;;;;;;44.40;19.48;;;7.50;99.90;;;;;;5052030;28;20036;-76
2024/02/12 01:28:43;;;;;;;47.83;20.08;;;7.80;99.90;;;;;;5035631;28;20451;-76
2024/02/12 01:31:18;;;;;;;47.58;20.05;;;7.80;99.90;;;;;;5052202;28;20036;-76
2024/02/12 01:33:46;;;;;;;40.10;18.10;;;7.60;99.90;;;;;;5052300;28;20044;-76
2024/02/12 01:36:13;;;;;;;46.65;17.40;;;7.70;99.90;;;;;;5051777;28;20068;-76
2024/02/12 01:38:39;;;;;;;43.95;20.17;;;7.60;99.90;;;;;;5035327;28;20524;-77
2024/02/12 01:41:06;;;;;;;52.55;20.23;;;7.80;99.90;;;;;;5051989;28;20037;-75
2024/02/12 01:43:34;;;;;;;47.88;19.35;;;7.80;99.90;;;;;;5035102;28;20045;-76
2024/02/12 01:46:00;;;;;;;41.97;19.50;;;7.70;99.90;;;;;;5051721;28;20033;-76
2024/02/12 01:48:30;;;;;;;38.65;19.20;;;7.80;99.90;;;;;;5035211;28;20517;-76
2024/02/12 01:50:58;;;;;;;42.72;20.67;;;7.60;99.90;;;;;;5034941;28;20048;-76
2024/02/12 01:53:25;;;;;;;42.45;17.50;;;7.50;99.90;;;;;;5034862;28;20131;-77
2024/02/12 01:55:50;;;;;;;37.28;16.23;;;7.50;99.90;;;;;;5051356;28;20051;-76
2024/02/12 01:58:17;;;;;;;40.33;18.30;;;7.80;99.90;;;;;;5034855;28;20045;-76
2024/02/12 02:00:48;;;;;;;37.65;16.50;;;7.70;99.90;;;;;;5051070;28;20045;-77
2024/02/12 02:03:17;;;;;;;45.22;17.65;;;7.50;99.90;;;;;;5051617;28;20040;-75
2024/02/12 02:05:45;;;;;;;36.25;17.10;;;7.50;99.90;;;;;;5051155;28;20123;-76
2024/02/12 02:08:11;;;;;;;34.25;16.08;;;7.70;99.90;;;;;;5050940;28;20045;-76
2024/02/12 02:10:38;;;;;;;39.03;17.88;;;7.70;99.90;;;;;;5050925;28;20191;-76
2024/02/12 02:13:06;;;;;;;42.80;17.20;;;7.50;99.90;;;;;;5034417;28;20041;-76
2024/02/12 02:15:35;;;;;;;37.85;16.02;;;7.70;99.90;;;;;;5051032;28;20048;-76
2024/02/12 02:18:03;;;;;;;45.38;17.77;;;7.50;99.90;;;;;;5034182;28;20044;-76
2024/02/12 02:20:30;;;;;;;43.25;17.33;;;7.70;99.90;;;;;;5034672;28;20087;-76
2024/02/12 02:22:56;;;;;;;41.13;17.23;;;7.50;99.90;;;;;;5050079;28;20118;-76
2024/02/12 02:25:23;;;;;;;37.67;17.25;;;7.60;99.90;;;;;;5050821;28;20045;-77
2024/02/12 02:27:50;;;;;;;40.70;17.45;;;7.50;99.90;;;;;;5050447;28;20051;-76
2024/02/12 02:30:16;;;;;;;45.92;17.45;;;7.60;99.90;;;;;;5034058;28;20044;-76
2024/02/12 02:32:41;;;;;;;34.33;17.15;;;7.40;99.90;;;;;;5050791;28;20099;-77
2024/02/12 02:35:07;;;;;;;37.50;17.42;;;7.70;99.90;;;;;;5034232;28;20439;-76
2024/02/12 02:37:34;;;;;;;40.20;17.45;;;7.70;99.90;;;;;;5050495;28;20067;-77
2024/02/12 02:39:59;;;;;;;45.88;18.30;;;7.60;99.90;;;;;;5050443;28;20041;-76
2024/02/12 02:42:25;;;;;;;35.58;15.20;;;7.50;99.90;;;;;;5050567;28;20098;-77
2024/02/12 02:44:53;;;;;;;41.85;17.45;;;7.80;99.90;;;;;;5050666;28;20040;-76
2024/02/12 02:47:19;;;;;;;34.35;16.13;;;7.50;99.90;;;;;;5050485;28;20041;-76
2024/02/12 02:49:46;;;;;;;41.45;17.92;;;7.50;99.90;;;;;;5050180;28;20509;-76
2024/02/12 02:52:12;;;;;;;42.85;17.10;;;7.60;99.90;;;;;;5050532;28;20045;-76
2024/02/12 02:54:38;;;;;;;37.22;16.83;;;7.40;99.90;;;;;;5050656;28;20064;-76
2024/02/12 02:57:04;;;;;;;39.55;18.08;;;7.70;99.90;;;;;;5050327;28;20064;-77
2024/02/12 02:59:30;;;;;;;52.40;18.58;;;7.50;99.90;;;;;;5050372;28;20131;-77
2024/02/12 03:01:56;;;;;;;42.58;18.17;;;7.40;99.90;;;;;;5033595;28;20040;-77
2024/02/12 03:04:22;;;;;;;42.20;19.05;;;7.70;99.90;;;;;;5050567;28;20416;-77
2024/02/12 03:06:47;;;;;;;38.13;17.85;;;7.80;99.90;;;;;;5033616;28;20037;-76
2024/02/12 03:09:13;;;;;;;44.63;18.33;;;7.60;99.90;;;;;;5033555;28;20044;-76
2024/02/12 03:11:40;;;;;;;41.47;18.80;;;7.70;99.90;;;;;;5049977;28;20041;-76
2024/02/12 03:14:08;;;;;;;44.60;18.83;;;7.80;99.90;;;;;;5050240;28;20124;-76
2024/02/12 03:16:35;;;;;;;46.03;19.88;;;7.70;99.90;;;;;;5050062;28;20119;-76
2024/02/12 03:19:01;;;;;;;40.67;18.48;;;7.70;99.90;;;;;;5050102;28;20504;-75
2024/02/12 03:21:27;;;;;;;40.67;19.35;;;7.40;99.90;;;;;;5033401;28;20048;-76
2024/02/12 03:23:57;;;;;;;35.03;18.25;;;7.60;99.90;;;;;;5033570;28;20033;-76
2024/02/12 03:26:23;;;;;;;44.00;17.45;;;7.50;99.90;;;;;;5033771;28;20094;-77
2024/02/12 03:28:49;;;;;;;41.70;19.20;;;7.60;99.90;;;;;;5050282;28;20048;-76
2024/02/12 03:31:15;;;;;;;36.40;16.85;;;7.40;99.90;;;;;;5050177;28;20574;-76
2024/02/12 03:33:42;;;;;;;44.15;17.98;;;7.30;99.90;;;;;;5034981;28;20128;-77
2024/02/12 03:36:08;;;;;;;41.72;19.27;;;7.60;99.90;;;;;;5054427;28;20092;-76
2024/02/12 03:38:33;;;;;;;41.83;19.05;;;7.50;99.90;;;;;;5037619;28;20079;-76
2024/02/12 03:40:59;;;;;;;42.33;18.67;;;7.30;99.90;;;;;;5037469;28;20060;-77
2024/02/12 03:43:25;;;;;;;41.15;16.85;;;7.40;99.90;;;;;;5053977;28;20037;-76
2024/02/12 03:45:57;;;;;;;45.28;18.67;;;7.30;99.90;;;;;;5037112;28;20144;-77
2024/02/12 04:02:04;;;;;;;40.15;18.52;;;7.40;99.90;;;;;;5053792;28;20044;-77
2024/02/12 04:04:31;;;;;;;40.63;18.38;;;7.40;99.90;;;;;;5053684;28;20036;-77
2024/02/12 04:06:57;;;;;;;37.38;17.00;;;7.30;99.90;;;;;;5053689;28;20056;-76
2024/02/12 04:09:23;;;;;;;39.75;18.38;;;7.60;99.90;;;;;;5053295;28;20496;-77
2024/02/12 04:11:49;;;;;;;37.92;17.20;;;7.30;99.90;;;;;;5053214;28;20048;-77
2024/02/12 04:14:15;;;;;;;41.03;17.45;;;7.40;99.90;;;;;;5053659;28;20123;-77
2024/02/12 04:16:42;;;;;;;41.28;18.17;;;7.50;99.90;;;;;;5053270;28;20443;-77
2024/02/12 04:19:10;;;;;;;37.22;16.92;;;7.60;99.90;;;;;;5053218;28;20041;-76
2024/02/12 04:21:37;;;;;;;42.53;18.00;;;7.50;99.90;;;;;;5053252;28;20094;-77
2024/02/12 04:24:04;;;;;;;37.00;17.23;;;7.60;99.90;;;;;;5036610;28;20037;-77
2024/02/12 04:26:37;;;;;;;43.55;18.35;;;7.50;99.90;;;;;;5059221;22;20012;-75
2024/02/12 04:29:06;;;;;;;35.17;18.48;;;7.30;99.90;;;;;;5036204;28;20048;-75
2024/02/12 04:31:38;;;;;;;35.05;17.58;;;7.60;99.90;;;;;;5035384;28;20048;-75
2024/02/12 04:34:07;;;;;;;43.63;18.25;;;7.40;99.90;;;;;;5019784;28;20461;-75
2024/02/12 04:36:42;;;;;;;40.75;18.83;;;7.20;99.90;;;;;;5054014;28;20065;-75
2024/02/12 04:39:14;;;;;;;39.35;17.45;;;7.40;99.90;;;;;;5019920;28;20370;-76
2024/02/12 04:41:41;;;;;;;38.35;17.88;;;7.40;99.90;;;;;;5019523;28;20068;-75
2024/02/12 04:44:07;;;;;;;37.95;18.25;;;7.60;99.90;;;;;;5036195;28;20045;-76
2024/02/12 04:46:36;;;;;;;36.08;16.63;;;7.50;99.90;;;;;;5035025;28;20045;-75
2024/02/12 04:49:03;;;;;;;41.42;18.25;;;7.50;99.90;;;;;;5035864;28;20049;-76
2024/02/12 04:51:28;;;;;;;37.65;17.95;;;7.60;99.90;;;;;;5035689;28;20040;-75
2024/02/12 04:53:54;;;;;;;43.25;19.90;;;7.30;99.90;;;;;;5036291;28;20496;-75
2024/02/12 04:56:19;;;;;;;44.70;18.38;;;7.30;99.90;;;;;;5019605;28;20271;-76
2024/02/12 04:58:45;;;;;;;43.00;20.15;;;7.40;99.90;;;;;;5053777;28;20120;-75
2024/02/12 05:01:11;;;;;;;49.25;19.10;;;7.40;99.90;;;;;;5053398;28;20084;-76
2024/02/12 05:03:37;;;;;;;40.15;18.67;;;7.70;99.90;;;;;;5035771;28;20091;-76
2024/02/12 05:06:04;;;;;;;39.38;18.00;;;7.60;99.90;;;;;;5035743;28;20033;-76
2024/02/12 05:08:29;;;;;;;41.70;20.23;;;7.40;99.90;;;;;;5035445;28;20052;-76
2024/02/12 05:10:57;;;;;;;40.03;19.88;;;7.40;99.90;;;;;;5036139;28;20123;-76
2024/02/12 05:13:24;;;;;;;43.47;19.05;;;7.70;99.90;;;;;;5035723;28;20036;-76
2024/02/12 05:15:52;;;;;;;41.22;19.63;;;7.50;99.90;;;;;;5035760;28;20124;-77
2024/02/12 05:23:48;;;;;;;47.47;20.23;;;7.50;99.90;;;;;;5035733;28;20463;-77
2024/02/12 05:26:14;;;;;;;41.75;18.77;;;7.40;99.90;;;;;;5018955;28;20128;-76
2024/02/12 05:28:40;;;;;;;41.17;19.70;;;7.40;99.90;;;;;;5035415;28;20045;-77
2024/02/12 05:31:06;;;;;;;41.85;19.05;;;7.30;99.90;;;;;;5035097;28;20037;-76
2024/02/12 05:33:31;;;;;;;35.05;18.02;;;7.30;99.90;;;;;;5035342;28;20037;-76
2024/02/12 05:35:58;;;;;;;44.20;20.15;;;7.60;99.90;;;;;;5035203;28;20033;-76
2024/02/12 05:38:23;;;;;;;42.63;19.85;;;7.60;99.90;;;;;;5035251;28;20036;-76
2024/02/12 05:40:49;;;;;;;45.08;19.33;;;7.50;99.90;;;;;;5035201;28;20037;-76
2024/02/12 05:43:15;;;;;;;41.72;18.38;;;7.30;99.90;;;;;;5018695;28;20478;-77
2024/02/12 05:45:41;;;;;;;48.22;18.38;;;7.60;99.90;;;;;;5035142;28;20135;-76
2024/02/12 05:48:06;;;;;;;37.45;18.80;;;7.30;99.90;;;;;;5035252;28;20074;-76
2024/02/12 05:50:32;;;;;;;33.78;17.05;;;7.40;99.90;;;;;;5034884;28;20037;-76
2024/02/12 05:52:59;;;;;;;37.92;18.45;;;7.40;99.90;;;;;;5018428;28;20044;-76
2024/02/12 05:55:25;;;;;;;44.53;19.63;;;7.20;99.90;;;;;;5034672;28;20048;-77
2024/02/12 05:57:50;;;;;;;43.85;18.85;;;7.20;99.90;;;;;;5034587;28;20040;-76
2024/02/12 06:00:16;;;;;;;42.58;18.35;;;7.10;99.90;;;;;;5034652;28;20411;-77
2024/02/12 06:02:43;;;;;;;37.38;18.55;;;7.00;99.90;;;;;;5034674;28;20067;-77
2024/02/12 06:05:08;;;;;;;36.95;16.65;;;7.10;99.90;;;;;;5034496;28;20520;-76
2024/02/12 06:07:34;;;;;;;40.33;18.13;;;7.20;99.90;;;;;;5034568;28;20113;-77
2024/02/12 06:10:03;;;;;;;47.90;20.08;;;7.20;99.90;;;;;;5034802;28;20072;-77
2024/02/12 06:12:29;;;;;;;41.88;20.25;;;7.10;99.90;;;;;;5035903;28;20045;-77
2024/02/12 06:14:54;;;;;;;39.53;18.92;;;7.20;99.90;;;;;;5038629;28;20139;-78
2024/02/12 06:17:20;;;;;;;42.08;17.73;;;7.00;99.90;;;;;;5023163;28;20077;-77
2024/02/12 06:19:45;;;;;;;42.15;20.42;;;7.10;99.90;;;;;;5039968;28;20045;-79
2024/02/12 06:22:11;;;;;;;42.08;17.50;;;7.10;99.90;;;;;;5039242;28;20417;-79
2024/02/12 06:24:37;;;;;;;41.88;18.88;;;7.10;99.90;;;;;;5023716;28;20040;-79
2024/02/12 06:27:03;;;;;;;47.95;20.02;;;7.20;99.90;;;;;;5038083;28;20036;-77
2024/02/12 06:29:28;;;;;;;46.20;19.73;;;7.10;99.90;;;;;;5035060;28;20052;-77
2024/02/12 06:31:54;;;;;;;43.50;19.67;;;7.10;99.90;;;;;;5036139;28;20048;-78
2024/02/12 06:34:20;;;;;;;49.70;19.70;;;7.10;99.90;;;;;;5035005;28;20119;-76
2024/02/12 06:36:46;;;;;;;50.25;22.95;;;7.20;99.90;;;;;;5035364;28;20035;-77
2024/02/12 06:39:11;;;;;;;39.65;18.73;;;7.00;99.90;;;;;;5034853;28;20091;-78
2024/02/12 06:41:42;;;;;;;42.30;18.63;;;6.90;99.90;;;;;;5035049;28;20083;-77
2024/02/12 06:44:07;;;;;;;39.05;18.90;;;7.00;99.90;;;;;;5018575;28;20037;-78
2024/02/12 06:46:33;;;;;;;45.83;20.35;;;7.30;99.90;;;;;;5033958;28;20037;-77
2024/02/12 06:48:59;;;;;;;42.67;20.75;;;7.20;99.90;;;;;;5034690;28;20063;-77
2024/02/12 06:51:24;;;;;;;44.63;21.02;;;7.20;99.90;;;;;;5034543;28;20035;-77
2024/02/12 06:53:50;;;;;;;49.28;20.05;;;7.00;99.90;;;;;;5035561;28;20115;-78
2024/02/12 06:56:15;;;;;;;47.35;20.85;;;7.30;99.90;;;;;;5035460;28;20041;-76
2024/02/12 06:58:44;;;;;;;46.35;20.30;;;7.20;99.90;;;;;;5033262;28;20037;-76
2024/02/12 07:01:12;;;;;;;45.55;22.00;;;7.10;99.90;;;;;;5033653;28;20121;-77
2024/02/12 07:03:38;;;;;;;55.40;21.75;;;7.00;99.90;;;;;;5033661;28;20074;-77
2024/02/12 07:06:04;;;;;;;50.70;21.17;;;7.10;99.90;;;;;;5017119;28;20041;-76
2024/02/12 07:08:30;;;;;;;46.38;20.13;;;7.30;99.90;;;;;;5032965;28;20041;-77
2024/02/12 07:10:55;;;;;;;50.97;19.88;;;7.10;99.90;;;;;;5033347;28;20118;-76
2024/02/12 07:13:21;;;;;;;48.50;23.17;;;7.20;99.90;;;;;;5033713;28;20399;-76
2024/02/12 07:15:47;;;;;;;53.17;21.25;;;7.30;99.90;;;;;;5033544;28;20044;-76
2024/02/12 07:18:12;;;;;;;54.33;22.30;;;7.20;99.90;;;;;;5033447;28;20041;-76
2024/02/12 07:20:39;;;;;;;57.13;21.48;;;7.20;99.90;;;;;;5051405;28;20125;-77
2024/02/12 07:23:06;;;;;;;50.15;20.13;;;7.30;99.90;;;;;;5017548;28;20396;-77
2024/02/12 07:25:32;;;;;;;46.42;19.52;;;7.10;99.90;;;;;;5033436;28;20560;-77
2024/02/12 07:27:57;;;;;;;45.28;20.38;;;7.20;99.90;;;;;;5033064;28;20116;-77
2024/02/12 07:30:23;;;;;;;50.92;21.67;;;7.10;99.90;;;;;;5033509;28;20060;-76
2024/02/12 07:32:49;;;;;;;56.30;22.65;;;7.20;99.90;;;;;;5034585;28;20037;-77
2024/02/12 07:35:15;;;;;;;48.50;20.75;;;7.50;99.90;;;;;;5036835;28;20037;-78
2024/02/12 07:37:43;;;;;;;47.10;21.73;;;7.20;99.90;;;;;;5036819;28;20106;-77
2024/02/12 07:40:10;;;;;;;46.72;20.42;;;7.40;99.90;;;;;;5036283;28;20495;-78
2024/02/12 07:42:38;;;;;;;46.92;21.02;;;7.50;99.90;;;;;;5035889;28;20047;-79
2024/02/12 07:45:07;;;;;;;45.47;20.45;;;7.20;99.90;;;;;;5034933;28;20115;-77
2024/02/12 07:47:34;;;;;;;46.47;20.85;;;7.30;99.90;;;;;;5018206;28;20040;-79
2024/02/12 07:50:01;;;;;;;47.03;21.33;;;7.50;99.90;;;;;;5019706;28;20052;-78
2024/02/12 07:52:27;;;;;;;45.30;21.52;;;7.40;99.90;;;;;;5035197;28;20041;-77
2024/02/12 07:54:53;;;;;;;48.80;21.75;;;7.40;99.90;;;;;;5036082;28;20064;-78
2024/02/12 07:57:19;;;;;;;51.95;23.40;;;7.30;99.90;;;;;;5035572;28;20041;-77
2024/02/12 07:59:44;;;;;;;51.92;19.98;;;7.30;99.90;;;;;;5018553;28;20040;-78
2024/02/12 08:02:10;;;;;;;50.13;21.15;;;7.30;99.90;;;;;;5035173;28;20432;-78
2024/02/12 08:04:36;;;;;;;62.53;23.77;;;7.30;99.90;;;;;;5035651;28;20128;-78
2024/02/12 08:07:04;;;;;;;53.13;22.77;;;7.40;99.90;;;;;;5034868;28;20119;-77
2024/02/12 08:09:33;;;;;;;52.05;21.10;;;7.60;99.90;;;;;;5018100;28;20060;-77
2024/02/12 08:12:01;;;;;;;51.67;20.83;;;7.40;99.90;;;;;;5033433;28;20069;-77
2024/02/12 08:14:27;;;;;;;45.47;20.17;;;7.60;99.90;;;;;;5033828;28;20037;-76
2024/02/12 08:16:52;;;;;;;55.72;21.35;;;7.70;99.90;;;;;;5036773;28;20100;-77
2024/02/12 08:19:18;;;;;;;53.92;21.05;;;7.40;99.90;;;;;;5036291;28;20128;-78
2024/02/12 08:21:45;;;;;;;53.08;21.42;;;7.50;99.90;;;;;;5037718;28;20460;-77
2024/02/12 08:24:13;;;;;;;56.13;21.70;;;7.40;99.90;;;;;;5037817;28;20128;-77
2024/02/12 08:26:41;;;;;;;52.97;21.50;;;7.80;99.90;;;;;;5037277;28;20090;-76
2024/02/12 08:29:06;;;;;;;54.05;22.05;;;7.60;99.90;;;;;;5022544;28;20068;-77
2024/02/12 08:31:32;;;;;;;54.75;22.35;;;7.90;99.90;;;;;;5038400;28;20393;-77
2024/02/12 08:33:59;;;;;;;58.03;23.02;;;7.90;99.90;;;;;;5037051;28;20182;-76
2024/02/12 08:36:25;;;;;;;53.65;21.95;;;8.20;99.90;;;;;;5036607;28;20087;-77
2024/02/12 08:38:50;;;;;;;58.08;20.10;;;7.90;99.90;;;;;;5036787;28;20189;-77
2024/02/12 08:41:24;;;;;;;51.20;20.95;;;8.10;99.90;;;;;;5036544;28;20037;-77
2024/02/12 08:43:55;;;;;;;51.90;20.90;;;8.00;99.90;;;;;;5034293;28;20123;-76
2024/02/12 08:46:21;;;;;;;49.78;21.73;;;7.80;99.90;;;;;;5032347;28;20041;-77
2024/02/12 08:48:47;;;;;;;52.40;20.98;;;7.80;99.90;;;;;;5027591;28;20052;-77
2024/02/12 08:51:15;;;;;;;52.90;21.27;;;7.80;99.90;;;;;;5011214;28;20040;-77
2024/02/12 08:53:43;;;;;;;53.08;21.23;;;7.70;99.90;;;;;;5036049;28;20041;-77
2024/02/12 08:56:17;;;;;;;47.95;20.08;;;7.90;99.90;;;;;;5035920;28;20076;-77
2024/02/12 08:58:43;;;;;;;;;;;7.80;99.90;;;;;;5036311;28;20073;-76
2024/02/12 09:01:13;;;;;;;43.35;19.90;;;7.80;99.90;;;;;;5035983;28;19990;-77
2024/02/12 09:03:40;;;;;;;48.40;20.50;;;7.90;99.90;;;;;;5019754;28;20489;-77
2024/02/12 09:06:12;;;;;;;47.25;20.77;;;7.80;99.90;;;;;;5036154;28;20656;-77
2024/02/12 09:08:45;;;;;;;41.55;20.55;;;8.10;99.90;;;;;;4999856;28;20055;-77
2024/02/12 09:11:12;;;;;;;49.42;20.48;;;8.00;99.90;;;;;;5032969;28;20037;-78
2024/02/12 09:13:46;;;;;;;46.70;21.10;;;8.10;99.90;;;;;;5017942;28;20038;-78
2024/02/12 09:16:13;;;;;;;55.00;20.40;;;8.30;99.90;;;;;;5018047;28;20029;-78
2024/02/12 09:18:38;;;;;;;44.13;22.40;;;8.20;99.90;;;;;;5017709;28;20037;-77
2024/02/12 09:21:05;;;;;;;39.60;19.27;;;8.30;99.90;;;;;;5032637;28;20060;-78
2024/02/12 09:23:31;;;;;;;44.30;18.33;;;8.20;99.90;;;;;;5034526;28;20037;-78
2024/02/12 09:25:56;;;;;;;43.60;19.50;;;8.30;99.90;;;;;;5034863;28;20042;-78
2024/02/12 09:28:27;;;;;;;40.67;17.27;;;8.20;99.90;;;;;;5034225;28;20060;-78
2024/02/12 09:30:54;;;;;;;41.42;18.83;;;8.20;99.90;;;;;;5034197;28;20049;-78
2024/02/12 09:33:20;;;;;;;40.38;18.05;;;8.40;99.90;;;;;;5034359;28;20045;-78
2024/02/12 09:35:46;;;;;;;37.63;17.48;;;8.50;99.90;;;;;;5034870;28;20041;-78
2024/02/12 09:38:14;;;;;;;44.60;19.15;;;8.50;99.90;;;;;;5018608;28;20043;-79
2024/02/12 09:40:42;;;;;;;43.25;18.15;;;8.60;99.90;;;;;;5035076;28;20065;-78
2024/02/12 09:43:09;;;;;;;39.08;17.08;;;8.50;99.90;;;;;;5018274;28;20124;-77
2024/02/12 09:45:45;;;;;;;34.63;15.63;;;8.70;99.90;;;;;;5033407;28;20378;-78
2024/02/12 09:48:12;;;;;;;33.65;16.63;;;8.80;99.90;;;;;;5034757;28;20037;-78
2024/02/12 09:50:44;;;;;;;28.10;14.25;;;8.80;99.90;;;;;;5035460;28;20064;-78
2024/02/12 09:53:19;;;;;;;39.35;15.30;;;8.80;99.90;;;;;;5035706;28;20079;-78
2024/02/12 09:55:48;;;;;;;43.15;16.17;;;8.90;99.90;;;;;;5036894;28;20550;-78
2024/02/12 09:58:18;;;;;;;28.55;14.80;;;8.80;99.90;;;;;;5035933;28;20103;-78
2024/02/12 10:00:45;;;;;;;24.77;13.95;;;8.90;99.90;;;;;;5032758;28;20563;-77
2024/02/12 10:03:13;;;;;;;29.15;15.40;;;8.90;99.90;;;;;;5034494;28;20517;-79
2024/02/12 10:05:43;;;;;;;32.38;12.75;;;8.80;99.90;;;;;;5037473;28;20054;-77
2024/02/12 10:08:23;;;;;;;33.92;14.13;;;8.90;99.90;;;;;;5035655;28;20036;-79
2024/02/12 10:10:49;;;;;;;33.05;14.95;;;9.00;99.90;;;;;;5033505;28;20087;-79
2024/02/12 10:13:16;;;;;;;24.30;13.35;;;8.90;99.90;;;;;;5037947;28;20068;-79
2024/02/12 10:15:43;;;;;;;30.98;13.70;;;9.00;99.90;;;;;;5037017;28;20060;-79
2024/02/12 10:18:11;;;;;;;24.27;13.43;;;9.00;99.90;;;;;;5020427;28;20033;-79
2024/02/12 10:20:39;;;;;;;29.33;13.88;;;9.00;99.90;;;;;;5036880;28;20041;-79
2024/02/12 10:23:08;;;;;;;24.63;14.88;;;9.10;99.90;;;;;;5037405;28;20048;-79
2024/02/12 10:25:45;;;;;;;29.02;12.80;;;9.10;99.90;;;;;;5038201;28;20408;-79
2024/02/12 10:28:13;;;;;;;24.00;13.60;;;9.20;99.90;;;;;;5068899;22;20051;-75
2024/02/12 10:30:40;;;;;;;26.05;11.63;;;9.10;99.90;;;;;;5090458;28;20051;-75
2024/02/12 10:33:08;;;;;;;21.25;11.75;;;9.20;99.90;;;;;;5074166;28;20376;-74
2024/02/12 10:35:43;;;;;;;19.35;10.73;;;9.30;99.90;;;;;;5092406;28;20032;-74
2024/02/12 10:38:11;;;;;;;20.45;11.45;;;9.30;99.90;;;;;;5076648;28;20068;-75
2024/02/12 10:40:56;;;;;;;22.35;10.80;;;9.30;99.90;;;;;;5071685;28;20373;-75
2024/02/12 10:43:23;;;;;;;20.48;11.75;;;9.30;99.90;;;;;;5071125;28;20083;-74
2024/02/12 10:45:50;;;;;;;20.00;10.88;;;9.20;99.90;;;;;;5070583;28;20488;-75
2024/02/12 10:48:17;;;;;;;23.58;10.63;;;9.10;99.90;;;;;;5070227;28;20032;-75
2024/02/12 10:50:47;;;;;;;21.52;10.55;;;9.10;99.90;;;;;;5070473;28;20047;-75
2024/02/12 10:53:17;;;;;;;20.77;9.95;;;9.20;99.90;;;;;;5054080;28;20075;-75
2024/02/12 10:55:44;;;;;;;20.98;10.95;;;9.20;99.90;;;;;;5054005;28;20036;-72
2024/02/12 10:58:10;;;;;;;17.90;9.40;;;9.20;99.90;;;;;;5070361;28;20483;-72
2024/02/12 11:00:39;;;;;;;19.88;10.10;;;9.20;99.90;;;;;;5070607;28;20106;-72
2024/02/12 11:03:06;;;;;;;22.25;10.30;;;9.20;99.90;;;;;;5070795;28;20097;-72
2024/02/12 11:05:37;;;;;;;22.25;10.43;;;9.10;99.90;;;;;;5070434;28;20119;-72
2024/02/12 11:08:08;;;;;;;27.73;10.38;;;9.20;99.90;;;;;;5070373;28;20024;-72
2024/02/12 11:10:35;;;;;;;19.52;9.07;;;9.20;99.90;;;;;;5071820;28;20105;-72
2024/02/12 11:13:05;;;;;;;20.67;10.00;;;9.20;99.90;;;;;;5071838;28;20028;-73
2024/02/12 11:15:31;;;;;;;18.05;9.55;;;9.20;99.90;;;;;;5071697;28;20039;-72
2024/02/12 11:17:57;;;;;;;17.13;8.88;;;9.20;99.90;;;;;;5070128;28;20045;-72
2024/02/12 11:20:25;;;;;;;17.90;9.20;;;9.20;99.90;;;;;;5053446;28;20036;-72
2024/02/12 11:22:52;;;;;;;15.98;9.43;;;9.30;99.90;;;;;;5070212;28;20041;-72
2024/02/12 11:25:19;;;;;;;16.92;8.73;;;9.30;99.90;;;;;;5070476;28;20182;-72
2024/02/12 11:27:52;;;;;;;14.95;8.10;;;9.30;99.90;;;;;;5069997;28;20037;-72
2024/02/12 11:30:19;;;;;;;13.50;7.45;;;9.40;99.90;;;;;;5069992;28;20040;-72
2024/02/12 11:32:46;;;;;;;10.77;7.30;;;9.40;99.90;;;;;;5053696;28;20407;-72
2024/02/12 11:35:14;;;;;;;14.80;7.18;;;9.30;99.90;;;;;;5053485;28;20040;-72
2024/02/12 11:37:45;;;;;;;19.08;7.13;;;9.40;99.90;;;;;;5053101;28;20090;-72
2024/02/12 11:40:16;;;;;;;12.35;6.88;;;9.40;99.90;;;;;;5069854;28;20045;-72
2024/02/12 11:42:51;;;;;;;10.85;5.43;;;9.40;99.90;;;;;;5070146;28;20048;-73
2024/02/12 11:45:18;;;;;;;13.27;5.97;;;9.40;99.90;;;;;;5069934;28;20032;-73
2024/02/12 11:47:47;;;;;;;10.80;5.25;;;9.50;99.90;;;;;;5053271;28;20048;-73
2024/02/12 11:50:26;;;;;;;10.27;4.47;;;9.40;99.90;;;;;;5069664;28;20036;-73
2024/02/12 11:52:56;;;;;;;10.18;5.40;;;9.40;99.90;;;;;;5069915;28;20094;-73
2024/02/12 11:55:23;;;;;;;15.82;4.55;;;9.50;99.90;;;;;;5072647;28;20032;-73
2024/02/12 11:57:50;;;;;;;13.38;5.63;;;9.40;99.90;;;;;;5074112;28;20438;-73
2024/02/12 12:00:22;;;;;;;11.15;4.53;;;9.50;99.90;;;;;;5073825;28;20048;-73
2024/02/12 12:02:55;;;;;;;13.30;5.63;;;9.50;99.90;;;;;;5057544;28;20442;-73
2024/02/12 12:05:25;;;;;;;10.02;4.80;;;9.60;99.90;;;;;;5075236;28;20051;-75
2024/02/12 12:07:52;;;;;;;9.40;5.78;;;9.60;99.90;;;;;;5073440;28;20040;-75
2024/02/12 12:10:26;;;;;;;13.48;6.10;;;9.70;99.90;;;;;;5073421;28;20041;-74
2024/02/12 12:12:53;;;;;;;11.57;5.80;;;9.80;99.90;;;;;;5073854;28;20055;-74
2024/02/12 12:15:20;;;;;;;11.48;5.38;;;9.80;99.90;;;;;;5073447;28;20041;-75
2024/02/12 12:17:49;;;;;;;12.95;5.13;;;9.90;99.90;;;;;;5073273;28;20036;-75
2024/02/12 12:20:18;;;;;;;12.65;6.03;;;9.90;99.90;;;;;;5073061;28;20523;-74
2024/02/12 12:22:44;;;;;;;8.27;4.63;;;9.90;99.90;;;;;;5073553;28;20404;-74
2024/02/12 12:25:12;;;;;;;13.63;4.43;;;9.90;99.90;;;;;;5073488;28;20036;-74
2024/02/12 12:27:38;;;;;;;9.77;5.05;;;9.80;99.90;;;;;;5072810;28;20040;-74
2024/02/12 12:30:19;;;;;;;7.95;3.97;;;9.80;99.90;;;;;;5056196;28;20492;-75
2024/02/12 12:32:50;;;;;;;15.00;4.60;;;9.80;99.90;;;;;;5073309;28;20063;-75
2024/02/12 12:35:17;;;;;;;9.40;4.28;;;9.80;99.90;;;;;;5073249;28;20114;-75
2024/02/12 12:37:45;;;;;;;11.30;4.57;;;9.70;99.90;;;;;;5072935;28;20040;-75
2024/02/12 12:40:21;;;;;;;10.95;5.60;;;9.80;99.90;;;;;;5056038;28;20062;-75
2024/02/12 12:42:48;;;;;;;15.40;6.28;;;9.70;99.90;;;;;;5073226;28;20040;-75
2024/02/12 12:45:15;;;;;;;11.02;4.57;;;9.80;99.90;;;;;;5072845;28;20079;-75
2024/02/12 12:47:41;;;;;;;9.57;4.15;;;9.80;99.90;;;;;;5072837;28;20076;-75
2024/02/12 12:50:10;;;;;;;11.85;4.95;;;9.90;99.90;;;;;;5072357;28;20531;-75
2024/02/12 12:52:38;;;;;;;7.95;4.50;;;9.90;99.90;;;;;;5072612;28;20045;-75
2024/02/12 12:55:04;;;;;;;13.65;4.75;;;10.00;99.90;;;;;;5072858;28;20484;-75
2024/02/12 12:57:31;;;;;;;6.55;3.90;;;10.10;99.90;;;;;;5072501;28;20040;-75